A- A+ FrançaisEnglishEspañol中国

Services sur Internet Soldes sur Internet Des idées de cadeaux Météo Météo aéro

La météo à : Autours de vous Tarbes-Lourdes-PyrénéesAvignon-Caumont Oloron-HerrereCalais-Dunkerque

manche à air

La météo aéronautique pour les pilotes, la préparation du vol avec les METAR (METeorological Aerodrome Report, message d'observation des conditions météorologiques pour l'aviation) et Les TAF (Terminal Aerodrome Forecast : message de prévision à court terme des conditions météorologiques pour l'aviation). Et les autres ressources comme les VAC (Visual Approch Chart) et les NOTAM (Notice To Airman) pour préprer les vols.

Aéroport Biggin Hill (Royaume-Uni) / OACI EGKB/ IATA BQH

L'altitude de l'aéroport Biggin Hill est de 182 m = 597 ft. Il est situé à proximité de London (Royaume-Uni). La météo générale à 5 jours est disponible pour Keston situé à 3.5 km.

METAR de l'aéroport Biggin Hill - EGKB

EGKB 292150Z 08003KT 9999 MIFG NSC 00/00 Q1021

Décodage du METAR de l'aéroport Biggin Hill (GB)

METAR émis par EGKB le vendredi 29 novembre 2019 à 21:50 heure TU, il y a 14 minutes.

La visibilité est de supérieure à 10 km = supérieure à 6.2 sm.

La température est de 0°C = 32 °F et le point rosée est de 0°C = 32 °F . Ce qui correspond à 100% d'humidité relative.

Le QNH est de 1021 hPa = 30.15 inHg

Vent de 3 kt = 6 km/h, orienté à 80°.

Aucun nuage à une hauteur inférieure à 5000 ft ou sous l'altitude minimale de secteur. Aucun cumulonimbus ou cumulus bourgeonnant, quelle que soit leur altitude (No Significant Clouds).

MIFG

TAF de l'aéroport Biggin Hill - EGKB

EGKB 292102Z 2921/2923 02004KT 9999 FEW020 BECMG 2921/2923 2000 BR MIFG PROB40 2922/2923 0200 FZFG VV///

EGKB 292102Z 2921/2923 02004KT 9999 quelques nuages à 020 devenant 2921/2923 2000 brume MIFG probabilité de 40% d'avoir 2922/2923 0200 FZFG VV///

Aéroport à proximité de Biggin Hill

Météo générale à 5 jours à Keston (3.5 km)Aéroport Redhill (18 km)Aéroport London City (19 km)Aéroport London Gatwick (26 km)Aéroport Rochester (33 km)Aéroport Stapleford (37 km)Aéroport London Heathrow (38 km)

Vue aérienne de l'aéroport Biggin Hill

NOTAM de l'aéroport Biggin Hill

Les NOTAM sont fournis sans aucune garantie de leur actualité. Le pilote est le seul responsable de la vérification de sa validité avant de l'utiliser opérationnellement pour préparer un vol ou l'utiliser lors de sa navigation.

Pas de NOTAM

Sources des données